Time;durP1;ratioP1;P1;durP2;ratioP2;P2;SDS_P1;SDS_P2;PMS_P1;PMS_P2;Temp;Humidity;BMP_temperature;BMP_pressure;BME280_temperature;BME280_humidity;BME280_pressure;Samples;Min_cycle;Max_cycle;Signal;HPM_P1;HPM_P2
2022/03/21 00:04:43;;;;;;;14.18;7.50;;;-1.70;93.90;;;;;;20654944;28;20035;-50
2022/03/21 00:14:46;;;;;;;14.30;6.93;;;-1.90;95.00;;;;;;20673891;28;20038;-51
2022/03/21 00:24:50;;;;;;;13.73;6.88;;;-2.00;95.30;;;;;;20640577;28;20038;-49
2022/03/21 00:34:52;;;;;;;13.07;6.95;;;-1.80;95.00;;;;;;20821439;28;20049;-47
2022/03/21 00:44:56;;;;;;;12.90;6.00;;;-1.80;94.80;;;;;;20893286;28;20063;-46
2022/03/21 00:54:59;;;;;;;13.88;7.45;;;-1.70;94.90;;;;;;20909052;28;20045;-47
2022/03/21 01:05:04;;;;;;;14.88;6.70;;;-1.80;95.40;;;;;;20925746;28;20099;-50
2022/03/21 01:15:08;;;;;;;14.80;7.70;;;-1.80;96.10;;;;;;20960013;28;20892;-49
2022/03/21 01:25:12;;;;;;;12.80;6.18;;;-1.90;96.70;;;;;;20989613;28;20055;-50
2022/03/21 01:35:17;;;;;;;14.55;7.60;;;-2.00;96.50;;;;;;20724994;28;20042;-48
2022/03/21 01:45:19;;;;;;;16.48;8.10;;;-2.20;97.10;;;;;;20715678;28;20087;-48
2022/03/21 02:05:47;;;;;;;13.93;6.97;;;-2.50;97.10;;;;;;20714622;28;20384;-48
2022/03/21 02:15:50;;;;;;;14.05;8.05;;;-2.50;98.00;;;;;;20656457;28;20494;-47
2022/03/21 02:25:54;;;;;;;13.32;7.22;;;-2.60;97.30;;;;;;20632245;28;20043;-51
2022/03/21 02:35:58;;;;;;;16.23;7.47;;;-2.70;97.90;;;;;;20486167;28;20043;-46
2022/03/21 02:46:06;;;;;;;14.50;7.43;;;-2.80;98.60;;;;;;20404447;29;20070;-50
2022/03/21 02:56:09;;;;;;;17.20;7.93;;;-2.80;98.50;;;;;;20420126;29;20032;-51
2022/03/21 03:06:13;;;;;;;16.63;8.80;;;-2.90;98.70;;;;;;20418658;28;20047;-50
2022/03/21 03:16:15;;;;;;;17.83;7.88;;;-2.90;99.00;;;;;;20478472;29;20386;-48
2022/03/21 03:26:18;;;;;;;15.10;7.03;;;-2.90;99.10;;;;;;20497204;28;20442;-47
2022/03/21 03:36:20;;;;;;;17.35;7.65;;;-2.80;99.20;;;;;;20931093;28;20048;-52
2022/03/21 03:46:23;;;;;;;17.05;7.50;;;-2.80;99.50;;;;;;20997142;28;20037;-49
2022/03/21 03:56:26;;;;;;;16.10;7.90;;;-2.80;99.20;;;;;;20980061;28;20397;-49
2022/03/21 04:06:29;;;;;;;19.52;8.48;;;-2.90;99.70;;;;;;20995854;28;20028;-51
2022/03/21 04:16:31;;;;;;;14.68;7.03;;;-3.00;99.40;;;;;;20909808;28;20367;-48
2022/03/21 04:26:33;;;;;;;16.30;8.02;;;-3.00;99.50;;;;;;20910818;28;20041;-49
2022/03/21 04:36:36;;;;;;;18.77;7.15;;;-3.20;99.70;;;;;;20909960;28;20053;-48
2022/03/21 04:46:38;;;;;;;19.10;8.43;;;-3.30;99.90;;;;;;20909593;28;20375;-51
2022/03/21 04:56:40;;;;;;;17.58;8.93;;;-3.50;99.90;;;;;;20908765;28;20033;-48
2022/03/21 05:06:43;;;;;;;19.55;9.85;;;-3.60;99.90;;;;;;20907773;28;20559;-49
2022/03/21 05:16:51;;;;;;;21.08;10.23;;;-3.70;99.90;;;;;;20973669;28;20036;-46
2022/03/21 05:37:14;;;;;;;23.30;9.93;;;-3.70;99.90;;;;;;20658837;28;20076;-47
2022/03/21 05:47:16;;;;;;;19.85;9.43;;;-3.40;99.90;;;;;;20716118;28;20038;-50
2022/03/21 05:57:18;;;;;;;16.42;8.45;;;-3.20;99.90;;;;;;20715814;28;20038;-51
2022/03/21 06:07:22;;;;;;;14.30;7.93;;;-3.10;99.90;;;;;;20714871;28;20112;-49
2022/03/21 06:17:24;;;;;;;14.13;7.45;;;-2.90;99.90;;;;;;20661527;28;20043;-49
2022/03/21 06:27:27;;;;;;;15.90;7.72;;;-2.70;99.90;;;;;;20674464;28;20037;-49
2022/03/21 06:37:29;;;;;;;17.27;7.25;;;-2.40;99.90;;;;;;20506206;28;20048;-53
2022/03/21 06:47:32;;;;;;;15.55;7.68;;;-2.20;99.90;;;;;;20483508;29;20145;-48
2022/03/21 06:57:35;;;;;;;13.13;6.93;;;-1.70;99.00;;;;;;20483307;29;20042;-50
2022/03/21 07:07:38;;;;;;;14.38;6.65;;;-1.10;98.20;;;;;;20482350;29;20035;-50
2022/03/21 07:17:42;;;;;;;11.95;6.05;;;-0.40;96.10;;;;;;20481907;29;20093;-48
2022/03/21 07:27:45;;;;;;;10.27;5.82;;;0.60;93.20;;;;;;20484506;28;20400;-50
2022/03/21 07:37:52;;;;;;;11.70;6.35;;;1.50;90.40;;;;;;20709521;28;20038;-52
2022/03/21 07:47:54;;;;;;;12.13;6.07;;;2.40;89.30;;;;;;20652465;28;20051;-51
2022/03/21 07:57:59;;;;;;;11.93;6.07;;;3.30;86.20;;;;;;20722621;28;20087;-48
2022/03/21 08:08:01;;;;;;;10.85;6.18;;;4.00;83.10;;;;;;20722014;28;20064;-53
2022/03/21 08:18:05;;;;;;;11.13;6.28;;;4.40;81.90;;;;;;20646888;28;20043;-49
2022/03/21 08:28:10;;;;;;;9.95;5.72;;;5.10;81.10;;;;;;20660495;28;20041;-50
2022/03/21 08:38:12;;;;;;;10.18;5.57;;;5.60;77.60;;;;;;20911464;28;20036;-52
2022/03/21 08:48:17;;;;;;;12.43;6.20;;;5.80;77.60;;;;;;20909557;28;20041;-50
2022/03/21 08:58:20;;;;;;;11.38;6.20;;;6.20;72.60;;;;;;20924870;28;20041;-49
2022/03/21 09:08:22;;;;;;;12.43;6.00;;;6.30;76.30;;;;;;20924645;28;20110;-49
2022/03/21 09:18:25;;;;;;;8.73;5.78;;;6.70;75.70;;;;;;20987640;28;20362;-52
2022/03/21 09:28:32;;;;;;;18.92;6.35;;;7.30;72.10;;;;;;20957240;28;20128;-50
2022/03/21 09:38:37;;;;;;;13.32;6.57;;;7.60;72.80;;;;;;20716437;28;20050;-51
2022/03/21 09:48:39;;;;;;;10.05;6.05;;;8.00;73.40;;;;;;20715752;28;20107;-48
2022/03/21 09:58:43;;;;;;;11.23;5.47;;;8.60;70.60;;;;;;20715237;28;20030;-51
2022/03/21 10:08:46;;;;;;;10.07;6.03;;;8.80;69.50;;;;;;20713161;28;20034;-50
2022/03/21 10:18:53;;;;;;;9.73;6.38;;;8.90;70.40;;;;;;20632575;28;20043;-50
2022/03/21 10:29:01;;;;;;;11.38;6.63;;;9.30;70.90;;;;;;20666377;28;20055;-52
2022/03/21 10:39:12;;;;;;;12.57;6.93;;;9.20;69.30;;;;;;20631393;28;20069;-52
2022/03/21 10:49:14;;;;;;;12.88;7.25;;;9.10;69.10;;;;;;20631259;28;20042;-52
2022/03/21 10:59:17;;;;;;;12.45;7.20;;;9.30;69.30;;;;;;20630245;28;20092;-49
2022/03/21 11:09:20;;;;;;;11.95;7.63;;;9.40;68.50;;;;;;20634981;28;20548;-50
2022/03/21 11:19:24;;;;;;;12.50;7.82;;;9.30;69.80;;;;;;20710190;28;20042;-48
2022/03/21 11:29:33;;;;;;;12.27;7.47;;;9.10;70.50;;;;;;20709413;28;20108;-51
2022/03/21 11:39:36;;;;;;;11.13;6.70;;;9.50;72.90;;;;;;20709414;28;20483;-50
2022/03/21 11:49:42;;;;;;;12.20;7.75;;;9.90;71.80;;;;;;20708512;28;20043;-52
2022/03/21 11:59:51;;;;;;;14.35;8.48;;;9.60;67.70;;;;;;20709226;28;20034;-52
2022/03/21 12:09:56;;;;;;;10.75;6.50;;;9.50;68.30;;;;;;20699259;28;20035;-49
2022/03/21 12:20:03;;;;;;;12.10;6.95;;;9.50;68.60;;;;;;20626248;28;20065;-52
2022/03/21 12:30:23;;;;;;;12.50;6.47;;;9.90;67.60;;;;;;20713319;28;20041;-51
2022/03/21 12:40:27;;;;;;;10.85;6.38;;;10.50;68.20;;;;;;20910143;28;20040;-51
2022/03/21 12:50:30;;;;;;;13.07;7.50;;;10.30;64.50;;;;;;20909868;28;20094;-52
2022/03/21 13:00:38;;;;;;;12.40;6.88;;;10.30;66.30;;;;;;20908742;28;20033;-49
2022/03/21 13:10:43;;;;;;;9.35;6.40;;;10.70;67.10;;;;;;20924293;28;20090;-52
2022/03/21 13:20:47;;;;;;;12.05;6.95;;;10.70;65.60;;;;;;21006720;28;20460;-53
2022/03/21 13:31:01;;;;;;;13.52;7.22;;;10.80;65.30;;;;;;20877310;28;20058;-50
2022/03/21 13:41:16;;;;;;;15.55;7.55;;;10.20;66.60;;;;;;20732686;28;20064;-53
2022/03/21 13:51:24;;;;;;;11.75;7.05;;;10.10;66.40;;;;;;20715290;28;20042;-48
2022/03/21 14:01:30;;;;;;;13.85;7.22;;;9.80;64.30;;;;;;20732052;28;20076;-50
2022/03/21 14:11:33;;;;;;;12.15;7.45;;;9.80;64.80;;;;;;20691657;28;20107;-52
2022/03/21 14:21:37;;;;;;;13.10;7.57;;;9.70;65.40;;;;;;20633336;28;20084;-51
2022/03/21 14:31:40;;;;;;;13.20;8.07;;;9.30;65.90;;;;;;20770891;28;20037;-50
2022/03/21 14:41:44;;;;;;;15.00;8.25;;;9.00;66.30;;;;;;20900891;28;20037;-49
2022/03/21 14:51:46;;;;;;;15.27;8.27;;;8.60;65.50;;;;;;20900513;28;20049;-51
2022/03/21 15:01:49;;;;;;;12.15;8.10;;;7.90;67.10;;;;;;20899385;28;20106;-47
2022/03/21 15:11:51;;;;;;;15.30;8.45;;;7.50;67.90;;;;;;20924988;28;20036;-51
2022/03/21 15:21:57;;;;;;;12.13;7.85;;;7.00;68.30;;;;;;20981999;28;20093;-51
2022/03/21 15:32:00;;;;;;;18.60;9.23;;;6.40;69.90;;;;;;20812529;28;20119;-49
2022/03/21 15:42:03;;;;;;;14.18;8.25;;;6.00;70.50;;;;;;20709042;28;20043;-52
2022/03/21 15:52:06;;;;;;;15.27;8.70;;;5.70;71.90;;;;;;20708421;28;20042;-50
2022/03/21 16:02:09;;;;;;;16.55;9.52;;;5.40;72.90;;;;;;20725190;28;20031;-49
2022/03/21 16:12:11;;;;;;;14.10;7.97;;;4.80;74.60;;;;;;20692090;28;20030;-49
2022/03/21 16:22:15;;;;;;;15.52;8.95;;;3.90;75.70;;;;;;20640827;28;20100;-48
2022/03/21 16:32:17;;;;;;;16.25;9.45;;;3.10;78.40;;;;;;20800229;28;20441;-49
2022/03/21 16:42:20;;;;;;;16.55;8.77;;;2.50;81.10;;;;;;20910535;28;20402;-49
2022/03/21 16:52:23;;;;;;;12.52;6.97;;;1.80;82.40;;;;;;20909274;28;20541;-50
2022/03/21 17:02:26;;;;;;;20.10;8.93;;;1.30;84.00;;;;;;20908690;28;20453;-47
2022/03/21 17:12:29;;;;;;;18.58;8.15;;;0.90;85.20;;;;;;20938962;28;20401;-47
2022/03/21 17:32:54;;;;;;;17.05;9.18;;;0.30;87.40;;;;;;20806741;28;20530;-47
2022/03/21 17:42:57;;;;;;;19.45;9.40;;;0.00;90.20;;;;;;20716863;28;20100;-50
2022/03/21 18:03:24;;;;;;;19.08;9.05;;;-0.50;91.50;;;;;;20715102;28;20031;-48
2022/03/21 18:13:27;;;;;;;18.17;9.15;;;-0.80;91.40;;;;;;20676137;28;20484;-50
2022/03/21 18:23:30;;;;;;;18.38;9.05;;;-0.80;91.70;;;;;;20633140;28;20047;-50
2022/03/21 18:33:33;;;;;;;17.45;9.40;;;-1.00;92.70;;;;;;20834025;28;20049;-49
2022/03/21 18:43:37;;;;;;;19.05;9.45;;;-1.20;93.80;;;;;;20900925;28;20040;-49
2022/03/21 18:53:39;;;;;;;17.08;8.82;;;-1.20;94.20;;;;;;20900323;28;20114;-47
2022/03/21 19:03:42;;;;;;;17.95;9.32;;;-1.40;94.00;;;;;;20899584;28;20041;-50
2022/03/21 19:13:45;;;;;;;18.40;9.38;;;-1.40;94.80;;;;;;20940363;28;20044;-48
2022/03/21 19:23:49;;;;;;;16.02;9.20;;;-1.30;95.30;;;;;;20981595;28;20032;-51
2022/03/21 19:33:51;;;;;;;14.65;7.88;;;-1.30;94.80;;;;;;20767188;28;20055;-49
2022/03/21 19:43:55;;;;;;;12.27;6.68;;;-1.40;94.50;;;;;;20717076;28;20107;-47
2022/03/21 19:53:58;;;;;;;14.18;7.13;;;-1.30;93.90;;;;;;20723231;28;20400;-48
2022/03/21 20:04:01;;;;;;;19.20;9.23;;;-1.30;94.10;;;;;;20722710;28;20038;-49
2022/03/21 20:14:03;;;;;;;17.83;8.30;;;-1.20;94.70;;;;;;20679281;28;20038;-47
2022/03/21 20:24:07;;;;;;;13.65;7.13;;;-1.10;93.90;;;;;;20657423;28;20503;-50
2022/03/21 20:34:10;;;;;;;14.70;7.50;;;-0.90;92.60;;;;;;20864386;28;20110;-52
2022/03/21 20:44:13;;;;;;;14.98;7.70;;;-0.70;92.80;;;;;;20926707;28;20325;-50
2022/03/21 20:54:16;;;;;;;15.23;7.50;;;-0.60;92.40;;;;;;20909621;28;20037;-51
2022/03/21 21:04:19;;;;;;;13.32;7.28;;;-0.50;92.70;;;;;;20908730;28;20086;-46
2022/03/21 21:14:22;;;;;;;15.88;6.90;;;-0.60;92.80;;;;;;20954627;28;20028;-45
2022/03/21 21:24:25;;;;;;;14.00;6.95;;;-0.70;92.50;;;;;;20990125;28;20101;-49
2022/03/21 21:34:28;;;;;;;13.60;6.10;;;-0.70;92.10;;;;;;20753725;28;20038;-48
2022/03/21 21:44:31;;;;;;;9.43;5.18;;;-0.80;91.10;;;;;;20716424;28;20495;-51
2022/03/21 21:54:34;;;;;;;10.48;4.57;;;-0.80;89.00;;;;;;20715746;28;20402;-47
2022/03/21 22:04:38;;;;;;;9.48;5.03;;;-0.90;85.60;;;;;;20716135;28;20544;-49
2022/03/21 22:14:41;;;;;;;9.18;5.25;;;-1.00;86.10;;;;;;20666202;28;20092;-48
2022/03/21 22:24:45;;;;;;;8.32;4.25;;;-1.00;84.80;;;;;;20633020;28;20043;-49
2022/03/21 22:34:48;;;;;;;7.80;4.30;;;-1.00;84.20;;;;;;20875514;28;20488;-46
2022/03/21 22:55:09;;;;;;;7.50;3.92;;;-1.30;83.40;;;;;;20900127;28;20099;-50
2022/03/21 23:05:12;;;;;;;8.77;4.57;;;-1.30;83.80;;;;;;20899732;28;20037;-50
2022/03/21 23:15:17;;;;;;;10.50;5.45;;;-1.20;82.10;;;;;;20952418;28;20044;-48
2022/03/21 23:25:21;;;;;;;9.32;5.30;;;-1.40;84.60;;;;;;20981637;28;20161;-48
2022/03/21 23:35:23;;;;;;;8.50;4.50;;;-1.60;85.30;;;;;;20715492;28;20050;-47
2022/03/21 23:45:25;;;;;;;10.02;5.43;;;-1.40;85.00;;;;;;20709757;28;20042;-46
2022/03/21 23:55:28;;;;;;;9.57;4.60;;;-1.30;83.60;;;;;;20709224;28;20050;-49
